Time;durP1;ratioP1;P1;durP2;ratioP2;P2;SDS_P1;SDS_P2;PMS_P1;PMS_P2;Temp;Humidity;BMP_temperature;BMP_pressure;BME280_temperature;BME280_humidity;BME280_pressure;Samples;Min_cycle;Max_cycle;Signal;HPM_P1;HPM_P2
2021/03/24 00:00:47;;;;;;;17.08;13.13;;;9.40;72.40;;;;;;4958381;28;20057;-81
2021/03/24 00:03:13;;;;;;;18.00;13.52;;;9.40;72.50;;;;;;4956899;28;20030;-81
2021/03/24 00:05:50;;;;;;;17.08;13.20;;;9.30;72.50;;;;;;4961159;28;20050;-80
2021/03/24 00:08:18;;;;;;;18.48;13.70;;;9.30;72.50;;;;;;4942110;28;20031;-78
2021/03/24 00:10:44;;;;;;;16.45;11.98;;;9.20;72.40;;;;;;4957895;28;20431;-80
2021/03/24 00:13:10;;;;;;;18.35;13.50;;;9.20;72.40;;;;;;4941237;28;20027;-80
2021/03/24 00:15:36;;;;;;;17.60;13.13;;;9.20;72.40;;;;;;4941532;28;20448;-80
2021/03/24 00:18:04;;;;;;;17.17;12.43;;;9.20;72.50;;;;;;4947381;28;20110;-79
2021/03/24 00:20:32;;;;;;;17.85;13.15;;;9.20;72.50;;;;;;4959804;28;20489;-80
2021/03/24 00:22:59;;;;;;;18.05;13.60;;;9.10;72.50;;;;;;4974231;28;20023;-80
2021/03/24 00:25:26;;;;;;;15.85;11.27;;;9.10;72.40;;;;;;4973682;28;20027;-80
2021/03/24 00:27:52;;;;;;;17.73;13.20;;;9.10;72.40;;;;;;4978467;28;20057;-80
2021/03/24 00:30:30;;;;;;;17.45;13.50;;;9.10;72.50;;;;;;4931228;28;20476;-80
2021/03/24 00:32:56;;;;;;;16.88;13.02;;;9.00;72.50;;;;;;4956675;28;20476;-78
2021/03/24 00:35:22;;;;;;;17.10;12.57;;;9.00;72.50;;;;;;4956647;28;20392;-78
2021/03/24 00:37:48;;;;;;;18.88;12.73;;;9.00;72.50;;;;;;4956772;28;20030;-79
2021/03/24 00:40:18;;;;;;;16.75;13.02;;;8.90;72.50;;;;;;4940264;28;20038;-80
2021/03/24 00:42:45;;;;;;;16.60;12.35;;;8.90;72.50;;;;;;4956279;28;20446;-80
2021/03/24 00:45:12;;;;;;;16.45;12.55;;;8.90;72.50;;;;;;4940559;28;20067;-80
2021/03/24 00:47:37;;;;;;;18.70;13.38;;;8.90;72.60;;;;;;4957055;28;20031;-78
2021/03/24 00:50:05;;;;;;;15.02;11.98;;;8.80;72.50;;;;;;4962082;28;20424;-80
2021/03/24 00:52:33;;;;;;;17.50;13.02;;;8.80;72.50;;;;;;4961841;28;20061;-79
2021/03/24 00:54:59;;;;;;;19.20;13.38;;;8.80;72.50;;;;;;4944629;29;20044;-78
2021/03/24 00:57:24;;;;;;;17.95;12.82;;;8.70;72.50;;;;;;4938442;28;20387;-78
2021/03/24 00:59:50;;;;;;;18.30;13.43;;;8.70;72.50;;;;;;4940114;28;20026;-78
2021/03/24 01:02:16;;;;;;;17.48;13.15;;;8.70;72.50;;;;;;4943001;28;20046;-80
2021/03/24 01:04:42;;;;;;;17.25;13.23;;;8.70;72.50;;;;;;4949671;29;20085;-80
2021/03/24 01:07:10;;;;;;;16.00;12.23;;;8.60;72.50;;;;;;4937490;29;20122;-80
2021/03/24 01:09:35;;;;;;;18.58;13.25;;;8.60;72.60;;;;;;4967846;28;20030;-81
2021/03/24 01:12:02;;;;;;;16.85;12.88;;;8.60;72.60;;;;;;4937158;29;20031;-77
2021/03/24 01:14:27;;;;;;;17.70;12.82;;;8.50;72.60;;;;;;4940378;28;20391;-79
2021/03/24 01:16:55;;;;;;;18.40;13.57;;;8.50;72.60;;;;;;4940209;28;20089;-78
2021/03/24 01:19:21;;;;;;;19.13;12.32;;;8.50;73.20;;;;;;4940329;28;20476;-81
2021/03/24 01:21:46;;;;;;;18.45;13.43;;;8.50;72.60;;;;;;4956050;28;20027;-79
2021/03/24 01:24:12;;;;;;;18.08;13.15;;;8.40;72.60;;;;;;4940435;28;20034;-78
2021/03/24 01:26:38;;;;;;;16.75;12.20;;;8.40;72.60;;;;;;4958135;28;20035;-80
2021/03/24 01:29:05;;;;;;;19.13;13.68;;;8.40;72.60;;;;;;4939735;28;20377;-80
2021/03/24 01:31:31;;;;;;;18.50;13.30;;;8.40;72.60;;;;;;4940378;28;20022;-80
2021/03/24 01:33:58;;;;;;;19.02;14.10;;;8.40;72.70;;;;;;4946832;28;20031;-80
2021/03/24 01:36:25;;;;;;;17.08;12.77;;;8.30;72.60;;;;;;4974981;28;20454;-80
2021/03/24 01:38:52;;;;;;;19.13;14.00;;;8.30;72.60;;;;;;4955609;28;20460;-80
2021/03/24 01:41:20;;;;;;;17.83;12.85;;;8.20;72.60;;;;;;4936873;29;20082;-80
2021/03/24 01:43:46;;;;;;;18.50;14.18;;;8.20;72.60;;;;;;4969061;28;20137;-81
2021/03/24 01:46:18;;;;;;;18.27;13.45;;;8.20;72.60;;;;;;4943932;28;20173;-80
2021/03/24 01:48:47;;;;;;;17.08;13.13;;;8.20;72.70;;;;;;4962692;28;20093;-80
2021/03/24 01:51:14;;;;;;;17.88;12.80;;;8.20;72.60;;;;;;4949163;28;20427;-80
2021/03/24 01:53:40;;;;;;;19.02;13.88;;;8.10;72.60;;;;;;4951324;28;20085;-80
2021/03/24 01:56:11;;;;;;;18.40;13.23;;;8.10;72.60;;;;;;4960620;28;20553;-80
2021/03/24 01:58:37;;;;;;;17.20;12.73;;;8.10;72.70;;;;;;4969326;28;20435;-80
2021/03/24 02:01:12;;;;;;;17.33;12.98;;;8.00;72.60;;;;;;4946437;28;20113;-80
2021/03/24 02:03:38;;;;;;;18.38;13.48;;;8.00;72.70;;;;;;4960280;28;20073;-79
2021/03/24 02:06:14;;;;;;;18.80;12.73;;;8.00;72.60;;;;;;4955099;28;20475;-80
2021/03/24 02:08:45;;;;;;;16.42;12.65;;;8.00;72.70;;;;;;4959746;28;20093;-80
2021/03/24 02:11:34;;;;;;;17.10;12.75;;;8.00;72.70;;;;;;4962090;28;20361;-80
2021/03/24 02:14:24;;;;;;;19.55;13.93;;;7.90;72.70;;;;;;4963848;28;20085;-79
2021/03/24 02:16:53;;;;;;;17.50;12.07;;;7.90;72.70;;;;;;4950594;28;20134;-80
2021/03/24 02:19:34;;;;;;;17.88;12.15;;;7.90;72.70;;;;;;4945171;28;20510;-80
2021/03/24 02:22:01;;;;;;;16.83;12.35;;;7.90;72.80;;;;;;4938836;28;20062;-80
2021/03/24 02:24:39;;;;;;;18.17;12.60;;;7.80;72.70;;;;;;4943296;28;20495;-80
2021/03/24 02:27:12;;;;;;;17.90;13.20;;;7.80;72.80;;;;;;4950937;28;20031;-80
2021/03/24 02:29:44;;;;;;;17.48;12.50;;;7.80;72.80;;;;;;4955342;29;20037;-80
2021/03/24 02:32:13;;;;;;;18.50;13.13;;;7.80;72.70;;;;;;4942821;29;20058;-79
2021/03/24 02:34:40;;;;;;;18.02;12.77;;;7.80;72.80;;;;;;4935694;28;20047;-80
2021/03/24 02:37:08;;;;;;;18.02;13.60;;;7.70;72.80;;;;;;4952275;28;20084;-80
2021/03/24 02:39:35;;;;;;;17.05;12.10;;;7.70;72.80;;;;;;4943406;28;20403;-80
2021/03/24 02:42:04;;;;;;;17.98;13.80;;;7.70;72.80;;;;;;4950312;28;20074;-80
2021/03/24 02:44:32;;;;;;;18.55;13.00;;;7.70;72.80;;;;;;4968711;28;20089;-80
2021/03/24 02:47:00;;;;;;;19.55;14.30;;;7.60;72.80;;;;;;4942893;28;20035;-80
2021/03/24 02:49:26;;;;;;;19.17;13.48;;;7.60;72.80;;;;;;4960536;28;20023;-80
2021/03/24 02:51:53;;;;;;;16.25;12.98;;;7.70;72.80;;;;;;4942495;28;20038;-80
2021/03/24 02:54:23;;;;;;;17.98;13.45;;;7.60;72.80;;;;;;4959120;28;20517;-80
2021/03/24 02:56:50;;;;;;;17.42;13.13;;;7.60;72.80;;;;;;4966907;28;20026;-80
2021/03/24 02:59:17;;;;;;;17.88;13.02;;;7.60;72.80;;;;;;4975279;28;20030;-79
2021/03/24 03:01:52;;;;;;;18.10;12.65;;;7.50;72.80;;;;;;4944413;28;20039;-79
2021/03/24 03:04:28;;;;;;;;;;;7.50;72.80;;;;;;4958093;28;20109;-81
2021/03/24 03:06:57;;;;;;;16.73;12.05;;;7.50;72.80;;;;;;4961188;28;19910;-80
2021/03/24 03:09:41;;;;;;;17.65;12.02;;;7.50;72.60;;;;;;4975850;28;20034;-79
2021/03/24 03:12:17;;;;;;;18.20;12.73;;;7.40;72.80;;;;;;4958163;28;20029;-80
2021/03/24 03:15:00;;;;;;;17.38;12.30;;;7.40;72.80;;;;;;4970951;28;20027;-80
2021/03/24 03:17:35;;;;;;;17.63;12.60;;;7.40;72.90;;;;;;4965116;28;20031;-80
2021/03/24 03:20:13;;;;;;;19.05;13.55;;;7.30;73.50;;;;;;4955886;28;20031;-81
2021/03/24 03:22:47;;;;;;;17.85;12.00;;;7.30;72.90;;;;;;4971052;28;20118;-80
2021/03/24 03:25:21;;;;;;;18.43;12.90;;;7.30;72.90;;;;;;4973758;28;20694;-80
2021/03/24 03:27:51;;;;;;;18.57;13.03;;;7.30;72.90;;;;;;4959726;28;20289;-80
2021/03/24 03:30:19;;;;;;;16.98;12.82;;;7.30;72.90;;;;;;4957717;28;20027;-80
2021/03/24 03:32:47;;;;;;;17.23;12.55;;;7.20;72.90;;;;;;4926546;28;20133;-80
2021/03/24 03:35:20;;;;;;;17.65;13.00;;;7.20;72.90;;;;;;4957949;28;20027;-80
2021/03/24 03:37:48;;;;;;;19.45;13.55;;;7.20;72.90;;;;;;4950707;28;20023;-80
2021/03/24 03:40:18;;;;;;;16.58;12.63;;;7.20;72.90;;;;;;4974851;28;20035;-79
2021/03/24 03:42:43;;;;;;;19.13;14.07;;;7.10;72.90;;;;;;4949759;28;20069;-80
2021/03/24 03:45:12;;;;;;;18.90;13.60;;;7.20;72.90;;;;;;4950621;28;20038;-79
2021/03/24 03:47:42;;;;;;;17.95;13.45;;;7.10;72.90;;;;;;4942603;28;20472;-80
2021/03/24 03:50:13;;;;;;;18.35;12.77;;;7.10;72.90;;;;;;4957848;28;20026;-80
2021/03/24 03:52:52;;;;;;;19.65;12.85;;;7.10;72.90;;;;;;4943341;28;20023;-80
2021/03/24 03:55:39;;;;;;;17.85;12.70;;;7.10;72.90;;;;;;4957086;28;20039;-80
2021/03/24 03:58:27;;;;;;;16.35;11.63;;;7.00;73.00;;;;;;4928975;28;20022;-80
2021/03/24 04:01:18;;;;;;;17.05;12.65;;;7.00;72.90;;;;;;4941493;28;20165;-80
2021/03/24 04:04:10;;;;;;;16.67;11.60;;;7.00;72.90;;;;;;4961307;28;20046;-80
2021/03/24 04:06:40;;;;;;;16.85;12.80;;;7.00;73.00;;;;;;4947953;28;20043;-80
2021/03/24 04:09:09;;;;;;;17.98;12.60;;;6.90;72.90;;;;;;4957994;28;20023;-80
2021/03/24 04:11:48;;;;;;;16.73;12.43;;;6.90;72.90;;;;;;4957129;28;20033;-79
2021/03/24 04:14:18;;;;;;;18.42;12.75;;;6.90;72.90;;;;;;4972631;28;20034;-79
2021/03/24 04:16:46;;;;;;;17.23;13.10;;;6.90;72.90;;;;;;4966067;28;20522;-80
2021/03/24 04:19:15;;;;;;;18.50;13.15;;;6.80;72.90;;;;;;4959580;28;20110;-80
2021/03/24 04:21:45;;;;;;;17.50;12.13;;;6.80;72.90;;;;;;4947297;28;20045;-80
2021/03/24 04:24:24;;;;;;;18.00;12.90;;;6.80;73.00;;;;;;4946104;28;20029;-80
2021/03/24 04:26:55;;;;;;;16.73;12.32;;;6.70;73.00;;;;;;4956943;28;20105;-80
2021/03/24 04:29:56;;;;;;;18.30;12.85;;;6.80;73.00;;;;;;4979450;28;20037;-79
2021/03/24 04:32:21;;;;;;;18.35;12.60;;;6.70;73.10;;;;;;4961359;28;20047;-79
2021/03/24 04:34:47;;;;;;;17.92;13.00;;;6.70;72.90;;;;;;4941162;28;20041;-79
2021/03/24 04:37:31;;;;;;;16.65;11.65;;;6.70;72.90;;;;;;4940952;28;20027;-80
2021/03/24 04:40:13;;;;;;;16.67;12.02;;;6.70;73.00;;;;;;4972978;28;20424;-80
2021/03/24 04:43:02;;;;;;;18.25;11.35;;;6.60;73.00;;;;;;4942249;28;20051;-80
2021/03/24 04:45:58;;;;;;;17.90;12.20;;;6.60;73.10;;;;;;4953453;28;20020;-79
2021/03/24 04:48:26;;;;;;;16.73;11.32;;;6.60;73.10;;;;;;4957663;28;20384;-79
2021/03/24 04:51:06;;;;;;;18.45;12.32;;;6.60;73.00;;;;;;4942877;28;20054;-79
2021/03/24 04:53:42;;;;;;;18.55;12.35;;;6.60;73.10;;;;;;4956448;28;20030;-79
2021/03/24 04:56:14;;;;;;;15.43;11.70;;;6.50;73.00;;;;;;4957665;28;20030;-80
2021/03/24 04:58:42;;;;;;;18.27;12.30;;;6.50;73.10;;;;;;4951546;28;20471;-79
2021/03/24 05:01:30;;;;;;;17.95;12.85;;;6.50;73.00;;;;;;4956264;28;20031;-79
2021/03/24 05:04:05;;;;;;;17.35;13.05;;;6.50;73.20;;;;;;4969888;28;20117;-79
2021/03/24 05:06:36;;;;;;;17.13;12.38;;;6.40;73.00;;;;;;4956900;28;20065;-79
2021/03/24 05:09:05;;;;;;;16.77;12.48;;;6.40;73.00;;;;;;4956328;28;20916;-80
2021/03/24 05:11:46;;;;;;;17.05;12.43;;;6.40;73.70;;;;;;4957307;28;20023;-79
2021/03/24 05:14:26;;;;;;;17.33;12.10;;;6.40;73.20;;;;;;4956039;28;20054;-80
2021/03/24 05:17:19;;;;;;;16.98;12.18;;;6.40;73.10;;;;;;4961113;28;20098;-79
2021/03/24 05:19:46;;;;;;;18.33;13.02;;;6.40;73.20;;;;;;4957728;28;20042;-79
2021/03/24 05:22:24;;;;;;;17.48;12.35;;;6.40;73.10;;;;;;4920937;29;20027;-79
2021/03/24 05:24:54;;;;;;;17.85;12.88;;;6.30;73.10;;;;;;4972279;28;20046;-79
2021/03/24 05:27:29;;;;;;;19.10;12.43;;;6.30;73.10;;;;;;4956226;28;20026;-79
2021/03/24 05:30:07;;;;;;;17.10;12.30;;;6.30;73.20;;;;;;4955800;28;20034;-79
2021/03/24 05:32:40;;;;;;;17.02;11.85;;;6.30;73.20;;;;;;4948928;28;20110;-79
2021/03/24 05:35:23;;;;;;;16.13;11.07;;;6.30;73.10;;;;;;4942604;28;20069;-80
2021/03/24 05:37:49;;;;;;;17.73;12.10;;;6.20;73.10;;;;;;4959394;28;20394;-78
2021/03/24 05:40:39;;;;;;;18.02;12.45;;;6.20;73.10;;;;;;4940027;28;20149;-80
2021/03/24 05:43:46;;;;;;;16.20;12.18;;;6.20;73.20;;;;;;4909533;28;20059;-80
2021/03/24 05:46:46;;;;;;;16.00;11.50;;;6.20;73.10;;;;;;4962006;28;20057;-80
2021/03/24 05:49:44;;;;;;;15.43;11.25;;;6.20;73.10;;;;;;4926990;28;20055;-80
2021/03/24 05:52:26;;;;;;;16.65;11.43;;;6.20;73.10;;;;;;4898713;28;20053;-80
2021/03/24 05:55:19;;;;;;;15.98;12.05;;;6.10;73.10;;;;;;4971407;28;20042;-79
2021/03/24 05:57:54;;;;;;;16.42;11.98;;;6.10;73.20;;;;;;4967264;28;20147;-81
2021/03/24 06:00:46;;;;;;;17.80;12.75;;;6.10;73.20;;;;;;4961915;28;20034;-87
2021/03/24 06:03:12;;;;;;;16.13;11.43;;;6.10;73.20;;;;;;4959564;28;20039;-78
2021/03/24 06:06:15;;;;;;;15.98;11.43;;;6.00;73.10;;;;;;4961225;28;20045;-80
2021/03/24 06:08:43;;;;;;;17.58;11.68;;;6.10;73.40;;;;;;4957718;28;20054;-80
2021/03/24 06:11:27;;;;;;;16.17;10.82;;;6.00;73.10;;;;;;4965357;28;20146;-79
2021/03/24 06:14:02;;;;;;;16.35;12.13;;;6.00;73.30;;;;;;4938372;28;20039;-78
2021/03/24 06:16:55;;;;;;;16.98;11.35;;;6.00;73.30;;;;;;4966535;28;20105;-80
2021/03/24 06:19:40;;;;;;;16.35;11.43;;;6.00;73.40;;;;;;4963867;28;20026;-80
2021/03/24 06:22:21;;;;;;;16.52;10.77;;;6.00;73.30;;;;;;4947883;28;20026;-80
2021/03/24 06:25:16;;;;;;;16.77;11.80;;;6.00;73.40;;;;;;4964525;28;20023;-79
2021/03/24 06:28:10;;;;;;;15.73;10.85;;;5.90;73.30;;;;;;4960667;28;20034;-80
2021/03/24 06:31:12;;;;;;;16.05;11.68;;;5.90;73.40;;;;;;4943314;28;20033;-79
2021/03/24 06:34:16;;;;;;;15.52;10.68;;;5.90;73.40;;;;;;4955168;28;20535;-80
2021/03/24 06:37:29;;;;;;;14.55;9.80;;;5.90;73.40;;;;;;4955236;28;20058;-79
2021/03/24 06:40:24;;;;;;;14.25;10.73;;;5.90;73.50;;;;;;4910213;29;20429;-79
2021/03/24 06:43:21;;;;;;;16.27;11.48;;;5.90;73.50;;;;;;4949467;28;20082;-80
2021/03/24 06:45:53;;;;;;;15.63;10.13;;;5.80;73.50;;;;;;4974964;28;20089;-80
2021/03/24 06:48:33;;;;;;;15.10;10.80;;;5.80;73.40;;;;;;4958803;28;20037;-80
2021/03/24 06:51:19;;;;;;;17.67;12.77;;;5.80;73.50;;;;;;4958808;28;20030;-80
2021/03/24 06:54:19;;;;;;;15.52;11.00;;;5.80;73.70;;;;;;4957734;28;20584;-79
2021/03/24 06:56:57;;;;;;;15.30;10.88;;;5.80;73.60;;;;;;4975815;28;20019;-80
2021/03/24 06:59:54;;;;;;;14.38;10.07;;;5.80;73.50;;;;;;4982310;28;20031;-80
2021/03/24 07:02:57;;;;;;;15.82;10.98;;;5.80;73.60;;;;;;4956192;28;20439;-80
2021/03/24 07:06:01;;;;;;;15.57;11.40;;;5.80;73.60;;;;;;4961570;28;20514;-80
2021/03/24 07:08:55;;;;;;;15.18;10.35;;;5.80;73.70;;;;;;4956735;28;20022;-80
2021/03/24 07:11:51;;;;;;;15.85;10.98;;;5.80;73.70;;;;;;4963256;28;20035;-81
2021/03/24 07:14:41;;;;;;;16.70;11.32;;;5.80;73.70;;;;;;4958544;28;20035;-80
2021/03/24 07:17:34;;;;;;;16.23;10.85;;;5.80;73.70;;;;;;4958480;28;20054;-80
2021/03/24 07:20:15;;;;;;;16.95;11.43;;;5.80;73.70;;;;;;4961192;28;20175;-80
2021/03/24 07:22:44;;;;;;;17.98;12.27;;;5.80;73.80;;;;;;4975045;28;20058;-81
2021/03/24 07:25:22;;;;;;;16.42;11.73;;;5.80;73.70;;;;;;4958414;28;20030;-79
2021/03/24 07:28:13;;;;;;;17.30;11.65;;;5.80;73.80;;;;;;4958757;28;20030;-80
2021/03/24 07:31:12;;;;;;;16.75;11.88;;;5.80;73.90;;;;;;4962172;28;20054;-80
2021/03/24 07:33:48;;;;;;;17.00;11.70;;;5.80;73.90;;;;;;4957927;28;20026;-80
2021/03/24 07:36:40;;;;;;;17.27;12.10;;;5.80;73.90;;;;;;4975839;28;20519;-80
2021/03/24 07:39:27;;;;;;;16.02;11.15;;;5.80;73.90;;;;;;4962020;28;20185;-79
2021/03/24 07:42:11;;;;;;;16.77;11.82;;;5.90;73.90;;;;;;4957964;28;20113;-79
2021/03/24 07:44:56;;;;;;;17.20;12.20;;;5.90;74.00;;;;;;4980005;28;20045;-79
2021/03/24 07:47:37;;;;;;;15.70;10.93;;;5.90;74.10;;;;;;4957596;28;20035;-78
2021/03/24 07:50:12;;;;;;;16.67;12.00;;;5.90;74.00;;;;;;4985413;28;20033;-78
2021/03/24 07:53:05;;;;;;;17.38;12.65;;;5.90;74.10;;;;;;4955539;28;20970;-78
2021/03/24 07:55:38;;;;;;;19.23;12.18;;;5.90;74.10;;;;;;4949208;28;20054;-80
2021/03/24 07:58:48;;;;;;;19.80;13.43;;;6.00;74.10;;;;;;4967383;28;20715;-80
2021/03/24 08:01:32;;;;;;;17.67;12.95;;;6.00;74.20;;;;;;4900316;29;20062;-80
2021/03/24 08:04:32;;;;;;;18.30;12.77;;;6.00;74.10;;;;;;4896026;29;20509;-80
2021/03/24 08:07:21;;;;;;;20.35;13.00;;;6.00;74.20;;;;;;4950220;28;20101;-80
2021/03/24 08:09:56;;;;;;;19.38;13.02;;;6.00;74.20;;;;;;4964588;28;20455;-79
2021/03/24 08:12:52;;;;;;;19.80;13.40;;;6.10;74.20;;;;;;4962772;28;20387;-80
2021/03/24 08:15:51;;;;;;;18.25;13.40;;;6.10;74.30;;;;;;4945501;28;20027;-80
2021/03/24 08:18:40;;;;;;;18.63;13.07;;;6.10;74.20;;;;;;4965739;28;20034;-80
2021/03/24 08:21:31;;;;;;;21.65;14.52;;;6.20;74.30;;;;;;4956825;28;20109;-80
2021/03/24 08:24:13;;;;;;;20.83;13.65;;;6.20;74.40;;;;;;4982243;28;20121;-79
2021/03/24 08:26:56;;;;;;;21.40;13.57;;;6.20;74.30;;;;;;4974140;28;20030;-80
2021/03/24 08:29:39;;;;;;;22.55;14.68;;;6.20;74.30;;;;;;4974370;28;20043;-80
2021/03/24 08:32:30;;;;;;;20.65;14.18;;;6.30;74.40;;;;;;4957756;28;20029;-81
2021/03/24 08:35:19;;;;;;;20.83;14.43;;;6.30;74.40;;;;;;4958876;28;20058;-80
2021/03/24 08:37:51;;;;;;;21.23;13.82;;;6.30;74.30;;;;;;4972547;28;20065;-80
2021/03/24 08:40:23;;;;;;;23.58;14.73;;;6.40;74.40;;;;;;4959140;28;20049;-80
2021/03/24 08:43:00;;;;;;;24.48;15.90;;;6.40;74.40;;;;;;4956783;28;20054;-81
2021/03/24 08:45:29;;;;;;;24.05;15.25;;;6.50;74.50;;;;;;4956448;28;20067;-80
2021/03/24 08:48:00;;;;;;;21.23;14.48;;;6.50;74.50;;;;;;4956756;28;20038;-80
2021/03/24 08:50:32;;;;;;;24.80;15.05;;;6.50;74.50;;;;;;4973460;28;20027;-79
2021/03/24 08:53:24;;;;;;;22.10;14.98;;;6.60;74.50;;;;;;4973737;28;20034;-80
2021/03/24 08:56:11;;;;;;;22.73;15.02;;;6.60;74.60;;;;;;4956702;28;20515;-79
2021/03/24 08:58:41;;;;;;;24.88;15.18;;;6.70;74.60;;;;;;4959256;28;20026;-80
2021/03/24 09:01:15;;;;;;;24.10;15.13;;;6.70;74.40;;;;;;4959883;28;20376;-80
2021/03/24 09:04:01;;;;;;;24.95;15.68;;;6.80;74.50;;;;;;4956422;28;20194;-80
2021/03/24 09:06:26;;;;;;;;;;;6.80;74.50;;;;;;4929239;28;20061;-80
2021/03/24 09:09:23;;;;;;;19.42;13.45;;;6.80;74.30;;;;;;4979701;28;19949;-80
2021/03/24 09:12:18;;;;;;;21.42;14.25;;;6.90;74.30;;;;;;4959231;28;20412;-81
2021/03/24 09:15:12;;;;;;;21.15;14.43;;;6.90;74.30;;;;;;4984940;28;20104;-80
2021/03/24 09:18:15;;;;;;;23.30;15.50;;;7.00;74.40;;;;;;4973257;28;20054;-81
2021/03/24 09:20:41;;;;;;;22.27;14.10;;;7.10;74.40;;;;;;4956154;28;20027;-82
2021/03/24 09:23:36;;;;;;;23.63;15.75;;;7.10;74.20;;;;;;4956434;28;20041;-82
2021/03/24 09:26:40;;;;;;;22.48;15.23;;;7.20;74.40;;;;;;4956547;28;20027;-82
2021/03/24 09:29:21;;;;;;;20.73;14.13;;;7.30;74.30;;;;;;4957644;28;20054;-82
2021/03/24 09:32:24;;;;;;;21.85;14.82;;;7.40;74.30;;;;;;4979461;28;20542;-82
2021/03/24 09:35:08;;;;;;;24.77;15.10;;;7.40;74.30;;;;;;4969170;28;20121;-80
2021/03/24 09:37:41;;;;;;;23.23;15.43;;;7.50;74.10;;;;;;4973538;28;20110;-81
2021/03/24 09:40:14;;;;;;;21.83;14.88;;;7.60;74.20;;;;;;4956198;28;20452;-82
2021/03/24 09:42:52;;;;;;;25.58;17.05;;;7.70;74.30;;;;;;4965155;28;20046;-81
2021/03/24 09:45:23;;;;;;;25.88;17.63;;;7.80;74.30;;;;;;4958161;28;20093;-81
2021/03/24 09:48:14;;;;;;;22.35;15.57;;;7.90;74.20;;;;;;4956048;28;20035;-80
2021/03/24 09:50:58;;;;;;;25.38;16.20;;;8.00;74.30;;;;;;4955531;28;20050;-81
2021/03/24 09:53:27;;;;;;;24.38;15.95;;;8.10;74.30;;;;;;4972722;28;20039;-81
2021/03/24 09:55:56;;;;;;;25.92;16.50;;;8.20;74.10;;;;;;4957139;28;20407;-80
2021/03/24 09:58:25;;;;;;;27.58;18.35;;;8.30;74.20;;;;;;4958287;28;20046;-82
2021/03/24 10:01:00;;;;;;;25.50;16.63;;;8.40;74.80;;;;;;4955347;28;20023;-81
2021/03/24 10:03:36;;;;;;;24.85;16.92;;;8.50;74.20;;;;;;4973160;28;20031;-82
2021/03/24 10:06:05;;;;;;;27.30;17.50;;;8.60;74.30;;;;;;4956143;28;20093;-82
2021/03/24 10:08:37;;;;;;;24.95;16.55;;;8.70;74.20;;;;;;4973454;28;20165;-82
2021/03/24 10:11:21;;;;;;;26.42;17.63;;;8.80;74.40;;;;;;4974132;28;20058;-83
2021/03/24 10:13:54;;;;;;;27.33;17.23;;;8.90;74.50;;;;;;4974837;28;20396;-83
2021/03/24 10:16:32;;;;;;;24.17;17.85;;;9.10;74.40;;;;;;4978296;28;20026;-82
2021/03/24 10:19:13;;;;;;;26.02;16.98;;;9.10;74.50;;;;;;4960987;28;20031;-83
2021/03/24 10:21:44;;;;;;;26.45;18.23;;;9.20;74.50;;;;;;4947801;28;20023;-82
2021/03/24 10:24:27;;;;;;;25.63;16.88;;;9.40;74.60;;;;;;4976725;28;20031;-81
2021/03/24 10:27:01;;;;;;;24.83;16.98;;;9.50;74.90;;;;;;4960002;28;20110;-84
2021/03/24 10:29:36;;;;;;;25.45;17.48;;;9.60;74.70;;;;;;4960094;28;20041;-85
2021/03/24 10:32:18;;;;;;;27.77;18.73;;;9.70;74.80;;;;;;4977066;28;20523;-83
2021/03/24 10:34:47;;;;;;;26.25;17.60;;;9.80;74.80;;;;;;4959700;28;20099;-83
2021/03/24 10:37:28;;;;;;;29.23;18.73;;;9.90;74.80;;;;;;4976636;28;20029;-83
2021/03/24 10:40:10;;;;;;;24.02;16.55;;;10.10;75.10;;;;;;4958745;28;20498;-83
2021/03/24 10:42:44;;;;;;;24.33;16.90;;;10.20;75.00;;;;;;4947801;28;20047;-81
2021/03/24 10:45:33;;;;;;;23.38;16.77;;;10.30;75.00;;;;;;4976684;28;20063;-82
2021/03/24 10:48:22;;;;;;;24.55;16.40;;;10.40;75.20;;;;;;4975256;28;20061;-83
2021/03/24 10:51:10;;;;;;;25.60;17.30;;;10.60;75.20;;;;;;4959047;28;20029;-82
2021/03/24 10:53:36;;;;;;;23.02;16.02;;;10.70;75.30;;;;;;4958569;28;20038;-83
2021/03/24 10:56:21;;;;;;;23.50;16.13;;;10.80;75.10;;;;;;4958985;28;20050;-84
2021/03/24 10:59:14;;;;;;;23.15;16.15;;;10.90;75.30;;;;;;4976231;28;20026;-83
2021/03/24 11:01:40;;;;;;;24.10;15.88;;;11.00;75.30;;;;;;4975113;28;20031;-83
2021/03/24 11:04:23;;;;;;;21.92;15.18;;;11.10;75.10;;;;;;4974534;28;20031;-81
2021/03/24 11:06:55;;;;;;;24.77;16.27;;;11.30;75.40;;;;;;4958884;28;20081;-83
2021/03/24 11:09:24;;;;;;;21.38;14.70;;;11.40;75.30;;;;;;4959187;28;20027;-83
2021/03/24 11:12:03;;;;;;;29.77;16.45;;;11.50;75.40;;;;;;4958771;28;20109;-83
2021/03/24 11:14:34;;;;;;;28.58;16.38;;;11.60;75.50;;;;;;4943253;28;20078;-83
2021/03/24 11:17:03;;;;;;;26.40;16.10;;;11.70;75.40;;;;;;4974362;28;20105;-82
2021/03/24 11:19:47;;;;;;;23.05;15.55;;;11.80;75.50;;;;;;4974556;28;20291;-83
2021/03/24 11:22:29;;;;;;;25.17;15.07;;;11.90;75.70;;;;;;4958988;28;20030;-83
2021/03/24 11:25:18;;;;;;;24.25;15.45;;;12.00;75.60;;;;;;4975269;28;20050;-82
2021/03/24 11:27:48;;;;;;;23.75;15.30;;;12.10;75.70;;;;;;4974481;28;20086;-82
2021/03/24 11:30:29;;;;;;;21.65;14.82;;;12.30;75.60;;;;;;4976064;28;20058;-83
2021/03/24 11:33:19;;;;;;;21.60;14.77;;;12.30;75.70;;;;;;4958210;28;20428;-83
2021/03/24 11:35:52;;;;;;;20.70;14.55;;;12.40;76.00;;;;;;4946490;28;20035;-83
2021/03/24 11:38:35;;;;;;;20.88;14.57;;;12.50;75.70;;;;;;4958232;28;20395;-82
2021/03/24 11:41:14;;;;;;;22.00;14.50;;;12.60;75.80;;;;;;4975222;28;20588;-82
2021/03/24 11:43:44;;;;;;;21.48;14.18;;;12.70;75.80;;;;;;4957997;28;20059;-82
2021/03/24 11:46:16;;;;;;;21.50;13.93;;;12.80;75.70;;;;;;4942505;28;20388;-83
2021/03/24 11:49:01;;;;;;;20.42;14.20;;;12.90;75.70;;;;;;4973805;28;20365;-81
2021/03/24 11:51:45;;;;;;;18.83;12.45;;;13.00;75.90;;;;;;4975405;28;20026;-83
2021/03/24 11:54:25;;;;;;;20.40;13.15;;;13.10;75.90;;;;;;4975379;28;20030;-82
2021/03/24 11:56:57;;;;;;;22.35;13.85;;;13.20;75.80;;;;;;4964540;28;20030;-81
2021/03/24 11:59:50;;;;;;;17.75;12.13;;;13.30;75.90;;;;;;4961696;28;20380;-84
2021/03/24 12:02:41;;;;;;;19.42;12.20;;;13.30;76.00;;;;;;4957122;28;20058;-82
2021/03/24 12:05:07;;;;;;;19.35;12.95;;;13.40;75.90;;;;;;4975063;28;20026;-82
2021/03/24 12:07:57;;;;;;;19.25;12.70;;;13.50;75.80;;;;;;4974823;28;20143;-82
2021/03/24 12:10:27;;;;;;;16.45;12.02;;;13.50;76.10;;;;;;4957344;28;20026;-81
2021/03/24 12:13:17;;;;;;;18.17;11.63;;;13.60;76.00;;;;;;4957740;28;20040;-82
2021/03/24 12:15:43;;;;;;;17.60;11.88;;;13.70;76.40;;;;;;4974908;28;20031;-82
2021/03/24 12:18:16;;;;;;;19.08;12.85;;;13.80;76.30;;;;;;4957278;28;20035;-83
2021/03/24 12:20:57;;;;;;;17.63;12.18;;;13.90;76.50;;;;;;4957172;28;20058;-83
2021/03/24 12:23:26;;;;;;;18.50;12.27;;;14.00;76.70;;;;;;4963266;28;20019;-83
2021/03/24 12:25:54;;;;;;;16.95;11.98;;;14.00;76.70;;;;;;4940980;28;20023;-83
2021/03/24 12:28:27;;;;;;;16.63;12.18;;;14.10;76.80;;;;;;4941399;28;20035;-83
2021/03/24 12:31:09;;;;;;;18.85;12.40;;;14.20;76.90;;;;;;4957129;28;20035;-82
2021/03/24 12:33:41;;;;;;;17.50;11.57;;;14.30;76.90;;;;;;4974293;28;20027;-83
2021/03/24 12:36:21;;;;;;;17.52;11.52;;;14.30;76.80;;;;;;4973623;28;20403;-82
2021/03/24 12:39:09;;;;;;;17.20;11.45;;;14.40;77.00;;;;;;4945470;28;20031;-81
2021/03/24 12:41:41;;;;;;;17.17;11.93;;;14.40;77.00;;;;;;4956321;28;20023;-80
2021/03/24 12:44:21;;;;;;;16.50;12.00;;;14.50;77.10;;;;;;4950650;28;20047;-80
2021/03/24 12:46:57;;;;;;;16.75;11.57;;;14.60;77.30;;;;;;4957102;28;20109;-80
2021/03/24 12:49:29;;;;;;;16.45;11.25;;;14.70;77.20;;;;;;4959226;28;20031;-77
2021/03/24 12:52:24;;;;;;;16.05;10.90;;;14.70;77.10;;;;;;4950424;28;20089;-80
2021/03/24 12:54:50;;;;;;;18.23;11.95;;;14.80;77.20;;;;;;4972124;28;20043;-80
2021/03/24 12:57:41;;;;;;;15.88;11.82;;;14.80;77.00;;;;;;4940378;28;20038;-80
2021/03/24 13:00:16;;;;;;;17.10;11.95;;;14.90;77.50;;;;;;4940154;28;20057;-79
2021/03/24 13:03:00;;;;;;;;;;;15.00;77.50;;;;;;4980640;28;20062;-80
2021/03/24 13:06:02;;;;;;;14.80;9.77;;;15.00;77.30;;;;;;4967752;28;19964;-80
2021/03/24 13:08:37;;;;;;;14.77;10.27;;;15.10;77.30;;;;;;4920250;28;20105;-80
2021/03/24 13:11:18;;;;;;;14.48;10.20;;;15.10;77.20;;;;;;4956742;28;20046;-80
2021/03/24 13:13:56;;;;;;;14.82;10.30;;;15.20;77.30;;;;;;4958156;28;20034;-80
2021/03/24 13:16:43;;;;;;;15.20;10.30;;;15.20;77.30;;;;;;4979824;28;20089;-81
2021/03/24 13:19:31;;;;;;;15.23;10.88;;;15.30;77.40;;;;;;4972687;28;20023;-80
2021/03/24 13:22:07;;;;;;;16.20;10.52;;;15.40;77.40;;;;;;4973343;28;20045;-79
2021/03/24 13:25:18;;;;;;;16.08;11.70;;;15.40;77.30;;;;;;4958899;28;20062;-79
2021/03/24 13:28:14;;;;;;;14.95;10.70;;;15.40;77.50;;;;;;4964954;28;20134;-80
2021/03/24 13:30:56;;;;;;;14.98;10.35;;;15.50;77.50;;;;;;4970066;28;20075;-80